Map

Track Data

SID SEASON NUMBER BASIN SUBBASIN NAME ISO_TIME NATURE LAT LON WMO_WIND WMO_PRES WMO_AGENCY TRACK_TYPE DIST2LAND LANDFALL IFLAG USA_AGENCY USA_ATCF_ID USA_LAT USA_LON USA_RECORD USA_STATUS USA_WIND USA_PRES USA_SSHS USA_R34_NE USA_R34_SE USA_R34_SW USA_R34_NW USA_R50_NE USA_R50_SE USA_R50_SW USA_R50_NW USA_R64_NE USA_R64_SE USA_R64_SW USA_R64_NW USA_POCI USA_ROCI USA_RMW USA_EYE TOKYO_LAT TOKYO_LON TOKYO_GRADE TOKYO_WIND TOKYO_PRES TOKYO_R50_DIR TOKYO_R50_LONG TOKYO_R50_SHORT TOKYO_R30_DIR TOKYO_R30_LONG TOKYO_R30_SHORT TOKYO_LAND CMA_LAT CMA_LON CMA_CAT CMA_WIND CMA_PRES HKO_LAT HKO_LON HKO_CAT HKO_WIND HKO_PRES NEWDELHI_LAT NEWDELHI_LON NEWDELHI_GRADE NEWDELHI_WIND NEWDELHI_PRES NEWDELHI_CI NEWDELHI_DP NEWDELHI_POCI REUNION_LAT REUNION_LON REUNION_TYPE REUNION_WIND REUNION_PRES REUNION_TNUM REUNION_CI REUNION_RMW REUNION_R34_NE REUNION_R34_SE REUNION_R34_SW REUNION_R34_NW REUNION_R50_NE REUNION_R50_SE REUNION_R50_SW REUNION_R50_NW REUNION_R64_NE REUNION_R64_SE REUNION_R64_SW REUNION_R64_NW BOM_LAT BOM_LON BOM_TYPE BOM_WIND BOM_PRES BOM_TNUM BOM_CI BOM_RMW BOM_R34_NE BOM_R34_SE BOM_R34_SW BOM_R34_NW BOM_R50_NE BOM_R50_SE BOM_R50_SW BOM_R50_NW BOM_R64_NE BOM_R64_SE BOM_R64_SW BOM_R64_NW BOM_ROCI BOM_POCI BOM_EYE BOM_POS_METHOD BOM_PRES_METHOD NADI_LAT NADI_LON NADI_CAT NADI_WIND NADI_PRES WELLINGTON_LAT WELLINGTON_LON WELLINGTON_WIND WELLINGTON_PRES DS824_LAT DS824_LON DS824_STAGE DS824_WIND DS824_PRES TD9636_LAT TD9636_LON TD9636_STAGE TD9636_WIND TD9636_PRES TD9635_LAT TD9635_LON TD9635_WIND TD9635_PRES TD9635_ROCI NEUMANN_LAT NEUMANN_LON NEUMANN_CLASS NEUMANN_WIND NEUMANN_PRES MLC_LAT MLC_LON MLC_CLASS MLC_WIND MLC_PRES USA_GUST BOM_GUST BOM_GUST_PER REUNION_GUST REUNION_GUST_PER USA_SEAHGT USA_SEARAD_NE USA_SEARAD_SE USA_SEARAD_SW USA_SEARAD_NW STORM_SPEED STORM_DIR
1931266N19308 1931 42 NA NA NOT_NAMED 1931-09-23 06:00:00 TS 18.5000 -51.7000 25 hurdat_atl main 1327 1326 O_____________ hurdat_atl AL081931 18.5000 -51.7000 TD 25 -1 6 329
1931266N19308 1931 42 NA NA NOT_NAMED 1931-09-23 09:00:00 TS 18.7400 -51.8499 main 1334 1333 P_____________ AL081931 18.7400 -51.8499 TD 27 -1 6 330
1931266N19308 1931 42 NA NA NOT_NAMED 1931-09-23 12:00:00 TS 19.0000 -52.0000 30 hurdat_atl main 1340 1340 O_____________ hurdat_atl AL081931 19.0000 -52.0000 TD 30 -1 6 333
1931266N19308 1931 42 NA NA NOT_NAMED 1931-09-23 15:00:00 TS 19.2925 -52.1500 main 1348 1348 P_____________ AL081931 19.2925 -52.1500 TD 30 -1 7 335
1931266N19308 1931 42 NA NA NOT_NAMED 1931-09-23 18:00:00 TS 19.6000 -52.3000 30 hurdat_atl main 1364 1364 O_____________ hurdat_atl AL081931 19.6000 -52.3000 TD 30 -1 7 334
1931266N19308 1931 42 NA NA NOT_NAMED 1931-09-23 21:00:00 TS 19.9000 -52.4575 main 1374 1374 P_____________ AL081931 19.9000 -52.4575 TD 32 -1 7 335
1931266N19308 1931 42 NA NA NOT_NAMED 1931-09-24 00:00:00 TS 20.2000 -52.6000 35 hurdat_atl main 1378 1369 O_____________ hurdat_atl AL081931 20.2000 -52.6000 TS 35 0 6 339
1931266N19308 1931 42 NA NA NOT_NAMED 1931-09-24 03:00:00 TS 20.4925 -52.7076 main 1372 1363 P_____________ AL081931 20.4925 -52.7076 TS 35 0 6 343
1931266N19308 1931 42 NA NA NOT_NAMED 1931-09-24 06:00:00 TS 20.8000 -52.8000 35 hurdat_atl main 1366 1360 O_____________ hurdat_atl AL081931 20.8000 -52.8000 TS 35 0 7 344
1931266N19308 1931 42 NA NA NOT_NAMED 1931-09-24 09:00:00 TS 21.1350 -52.9000 main 1362 1356 P_____________ AL081931 21.1350 -52.9000 TS 37 0 7 345
1931266N19308 1931 42 NA NA NOT_NAMED 1931-09-24 12:00:00 TS 21.5000 -53.0000 40 hurdat_atl main 1361 1356 O_____________ hurdat_atl AL081931 21.5000 -53.0000 TS 40 0 8 346
1931266N19308 1931 42 NA NA NOT_NAMED 1931-09-24 15:00:00 TS 21.8850 -53.1075 main 1361 1357 P_____________ AL081931 21.8850 -53.1075 TS 40 0 8 347
1931266N19308 1931 42 NA NA NOT_NAMED 1931-09-24 18:00:00 TS 22.3000 -53.2000 40 hurdat_atl main 1363 1363 O_____________ hurdat_atl AL081931 22.3000 -53.2000 TS 40 0 9 351
1931266N19308 1931 42 NA NA NOT_NAMED 1931-09-24 21:00:00 TS 22.7425 -53.2576 main 1367 1367 P_____________ AL081931 22.7425 -53.2576 TS 42 0 9 355
1931266N19308 1931 42 NA NA NOT_NAMED 1931-09-25 00:00:00 TS 23.2000 -53.3000 45 hurdat_atl main 1385 1385 O_____________ hurdat_atl AL081931 23.2000 -53.3000 TS 45 0 9 354
1931266N19308 1931 42 NA NA NOT_NAMED 1931-09-25 03:00:00 TS 23.6500 -53.3500 main 1396 1392 P_____________ AL081931 23.6500 -53.3500 TS 45 0 9 355
1931266N19308 1931 42 NA NA NOT_NAMED 1931-09-25 06:00:00 TS 24.1000 -53.4000 45 hurdat_atl main 1414 1414 O_____________ hurdat_atl AL081931 24.1000 -53.4000 TS 45 0 9 354
1931266N19308 1931 42 NA NA NOT_NAMED 1931-09-25 09:00:00 TS 24.5350 -53.4575 main 1424 1424 P_____________ AL081931 24.5350 -53.4575 TS 47 0 9 355
1931266N19308 1931 42 NA NA NOT_NAMED 1931-09-25 12:00:00 TS 25.0000 -53.5000 50 hurdat_atl main 1450 1450 O_____________ hurdat_atl AL081931 25.0000 -53.5000 TS 50 0 10 356
1931266N19308 1931 42 NA NA NOT_NAMED 1931-09-25 15:00:00 TS 25.5275 -53.5371 main 1477 1477 P_____________ AL081931 25.5275 -53.5371 TS 50 0 11 0
1931266N19308 1931 42 NA NA NOT_NAMED 1931-09-25 18:00:00 TS 26.1000 -53.5000 50 hurdat_atl main 1512 1512 O_____________ hurdat_atl AL081931 26.1000 -53.5000 TS 50 0 12 9
1931266N19308 1931 42 NA NA NOT_NAMED 1931-09-25 21:00:00 TS 26.6926 -53.3303 main 1565 1565 P_____________ AL081931 26.6926 -53.3303 TS 50 0 13 17
1931266N19308 1931 42 NA NA NOT_NAMED 1931-09-26 00:00:00 TS 27.3000 -53.1000 50 hurdat_atl main 1619 1619 O_____________ hurdat_atl AL081931 27.3000 -53.1000 TS 50 0 13 18
1931266N19308 1931 42 NA NA NOT_NAMED 1931-09-26 03:00:00 TS 27.9000 -52.8998 main 1674 1674 P_____________ AL081931 27.9000 -52.8998 TS 50 0 13 16
1931266N19308 1931 42 NA NA NOT_NAMED 1931-09-26 06:00:00 TS 28.5000 -52.7000 50 hurdat_atl main 1730 1730 O_____________ hurdat_atl AL081931 28.5000 -52.7000 TS 50 0 13 17
1931266N19308 1931 42 NA NA NOT_NAMED 1931-09-26 09:00:00 TS 29.1225 -52.4777 main 1787 1787 P_____________ AL081931 29.1225 -52.4777 TS 50 0 13 16
1931266N19308 1931 42 NA NA NOT_NAMED 1931-09-26 12:00:00 TS 29.7000 -52.3000 50 hurdat_atl main 1845 1827 O_____________ hurdat_atl AL081931 29.7000 -52.3000 TS 50 0 11 12
1931266N19308 1931 42 NA NA NOT_NAMED 1931-09-26 15:00:00 TS 30.1874 -52.2197 main 1827 1783 P_____________ AL081931 30.1874 -52.2197 TS 50 0 9 5
1931266N19308 1931 42 NA NA NOT_NAMED 1931-09-26 18:00:00 TS 30.6000 -52.2000 50 hurdat_atl main 1783 1749 O_____________ hurdat_atl AL081931 30.6000 -52.2000 TS 50 0 8 0
1931266N19308 1931 42 NA NA NOT_NAMED 1931-09-26 21:00:00 TS 30.9650 -52.1924 main 1738 1705 P_____________ AL081931 30.9650 -52.1924 TS 52 0 7 0
1931266N19308 1931 42 NA NA NOT_NAMED 1931-09-27 00:00:00 TS 31.3000 -52.2000 55 hurdat_atl main 1705 1671 O_____________ hurdat_atl AL081931 31.3000 -52.2000 TS 55 0 7 0
1931266N19308 1931 42 NA NA NOT_NAMED 1931-09-27 03:00:00 TS 31.6425 -52.2000 main 1671 1627 P_____________ AL081931 31.6425 -52.2000 TS 55 0 7 0
1931266N19308 1931 42 NA NA NOT_NAMED 1931-09-27 06:00:00 TS 32.0000 -52.2000 55 hurdat_atl main 1627 1593 O_____________ hurdat_atl AL081931 32.0000 -52.2000 TS 55 0 7 0
1931266N19308 1931 42 NA NA NOT_NAMED 1931-09-27 09:00:00 TS 32.3700 -52.2000 main 1582 1538 P_____________ AL081931 32.3700 -52.2000 TS 57 0 8 1
1931266N19308 1931 42 NA NA NOT_NAMED 1931-09-27 12:00:00 TS 32.8000 -52.2000 60 hurdat_atl main 1538 1482 O_____________ hurdat_atl AL081931 32.8000 -52.2000 TS 60 0 9 0
1931266N19308 1931 42 NA NA NOT_NAMED 1931-09-27 15:00:00 TS 33.3050 -52.2000 main 1482 1415 P_____________ AL081931 33.3050 -52.2000 TS 60 0 11 0
1931266N19308 1931 42 NA NA NOT_NAMED 1931-09-27 18:00:00 TS 33.9000 -52.2000 60 hurdat_atl main 1415 1349 O_____________ hurdat_atl AL081931 33.9000 -52.2000 TS 60 0 13 0
1931266N19308 1931 42 NA NA NOT_NAMED 1931-09-27 21:00:00 TS 34.5550 -52.2145 main 1337 1259 P_____________ AL081931 34.5550 -52.2145 TS 62 0 14 0
1931266N19308 1931 42 NA NA NOT_NAMED 1931-09-28 00:00:00 TS 35.3000 -52.2000 65 hurdat_atl main 1259 1171 O_____________ hurdat_atl AL081931 35.3000 -52.2000 HU 65 1 16 1
1931266N19308 1931 42 NA NA NOT_NAMED 1931-09-28 03:00:00 TS 36.1048 -52.1585 main 1171 1083 P_____________ AL081931 36.1048 -52.1585 HU 65 1 17 5
1931266N19308 1931 42 NA NA NOT_NAMED 1931-09-28 06:00:00 TS 37.0000 -52.0000 65 hurdat_atl main 1072 975 O_____________ hurdat_atl AL081931 37.0000 -52.0000 HU 65 1 19 12
1931266N19308 1931 42 NA NA NOT_NAMED 1931-09-28 09:00:00 TS 37.9775 -51.6674 main 964 870 P_____________ AL081931 37.9775 -51.6674 HU 62 0 21 17
1931266N19308 1931 42 NA NA NOT_NAMED 1931-09-28 12:00:00 TS 39.0000 -51.2000 60 hurdat_atl main 860 760 O_____________ hurdat_atl AL081931 39.0000 -51.2000 TS 60 0 22 20
1931266N19308 1931 42 NA NA NOT_NAMED 1931-09-28 15:00:00 TS 40.0147 -50.6938 main 760 677 P_____________ AL081931 40.0147 -50.6938 TS 57 0 22 23
1931266N19308 1931 42 NA NA NOT_NAMED 1931-09-28 18:00:00 ET 41.0000 -50.1000 55 hurdat_atl main 669 605 O_____________ hurdat_atl AL081931 41.0000 -50.1000 EX 55 -4 21 26
1931266N19308 1931 42 NA NA NOT_NAMED 1931-09-28 21:00:00 ET 41.8983 -49.4920 main 599 554 P_____________ AL081931 41.8983 -49.4920 EX 55 -4 21 30
1931266N19308 1931 42 NA NA NOT_NAMED 1931-09-29 00:00:00 ET 42.8000 -48.7000 55 hurdat_atl main 551 531 O_____________ hurdat_atl AL081931 42.8000 -48.7000 EX 55 -4 23 36
1931266N19308 1931 42 NA NA NOT_NAMED 1931-09-29 03:00:00 ET 43.7790 -47.6043 main 536 534 P_____________ AL081931 43.7790 -47.6043 EX 52 -4 26 41
1931266N19308 1931 42 NA NA NOT_NAMED 1931-09-29 06:00:00 ET 44.8000 -46.3000 50 hurdat_atl main 562 O_____________ hurdat_atl AL081931 44.8000 -46.3000 EX 50 -4 28 42

About IBTrACS Database

This database is a web-friendly format of International Best Track Archive for Climate Stewardship (IBTrACS), a global best track data archive curated by NOAA dating back to 1842.

Updated: 2021-11-26